createdAt,value
2023-04-02T00:01:33.669Z,100.00
2023-04-02T00:04:00.222Z,100.00
2023-04-02T00:06:44.655Z,100.00
2023-04-02T00:09:11.156Z,100.00
2023-04-02T00:11:42.757Z,100.00
2023-04-02T00:14:16.701Z,100.00
2023-04-02T00:16:43.964Z,100.00
2023-04-02T00:19:18.569Z,100.00
2023-04-02T00:21:46.941Z,100.00
2023-04-02T00:24:18.554Z,100.00
2023-04-02T00:26:47.105Z,100.00
2023-04-02T00:29:15.893Z,100.00
2023-04-02T00:31:45.401Z,100.00
2023-04-02T00:34:31.819Z,100.00
2023-04-02T00:36:58.493Z,100.00
2023-04-02T00:39:29.169Z,100.00
2023-04-02T00:42:06.883Z,100.00
2023-04-02T00:44:38.816Z,100.00
2023-04-02T00:47:20.221Z,100.00
2023-04-02T00:49:47.424Z,100.00
2023-04-02T00:52:22.172Z,100.00
2023-04-02T00:54:52.316Z,100.00
2023-04-02T00:57:25.528Z,100.00
2023-04-02T01:00:21.674Z,100.00
2023-04-02T01:03:16.445Z,100.00
2023-04-02T01:05:52.495Z,100.00
2023-04-02T01:08:28.607Z,100.00
2023-04-02T01:11:21.841Z,100.00
2023-04-02T01:14:26.185Z,100.00
2023-04-02T01:16:57.525Z,100.00
2023-04-02T01:20:07.912Z,100.00
2023-04-02T01:22:42.592Z,100.00
2023-04-02T01:25:14.029Z,100.00
2023-04-02T01:27:52.492Z,100.00
2023-04-02T01:30:19.672Z,100.00
2023-04-02T01:32:46.448Z,100.00
2023-04-02T01:35:13.074Z,100.00
2023-04-02T01:37:46.684Z,100.00
2023-04-02T01:40:32.126Z,100.00
2023-04-02T01:43:09.279Z,100.00
2023-04-02T01:45:36.796Z,100.00
2023-04-02T01:48:14.670Z,100.00
2023-04-02T01:50:43.918Z,100.00
2023-04-02T01:53:13.515Z,100.00
2023-04-02T01:55:47.042Z,100.00
2023-04-02T01:58:17.364Z,100.00
2023-04-02T02:00:49.992Z,100.00
2023-04-02T02:03:17.141Z,100.00
2023-04-02T02:05:43.970Z,100.00
2023-04-02T02:08:28.536Z,100.00
2023-04-02T02:10:55.085Z,100.00
2023-04-02T02:13:23.092Z,100.00
2023-04-02T02:15:50.001Z,100.00
2023-04-02T02:18:20.170Z,100.00
2023-04-02T02:20:47.280Z,100.00
2023-04-02T02:23:14.378Z,100.00
2023-04-02T02:25:41.240Z,100.00
2023-04-02T02:28:13.852Z,100.00
2023-04-02T02:30:47.181Z,100.00
2023-04-02T02:33:32.931Z,100.00
2023-04-02T02:36:10.196Z,100.00
2023-04-02T02:38:46.104Z,100.00
2023-04-02T02:41:50.305Z,100.00
2023-04-02T02:44:33.542Z,100.00
2023-04-02T02:47:19.840Z,100.00
2023-04-02T02:49:50.008Z,100.00
2023-04-02T02:52:20.138Z,100.00
2023-04-02T02:54:49.986Z,100.00
2023-04-02T02:57:27.768Z,100.00
2023-04-02T02:59:57.414Z,100.00
2023-04-02T03:02:25.309Z,100.00
2023-04-02T03:04:53.861Z,100.00
2023-04-02T03:07:26.179Z,100.00
2023-04-02T03:10:01.574Z,100.00
2023-04-02T03:13:00.790Z,100.00
2023-04-02T03:15:54.399Z,100.00
2023-04-02T03:18:43.974Z,100.00
2023-04-02T03:21:17.772Z,100.00
2023-04-02T03:23:51.624Z,100.00
2023-04-02T03:26:22.820Z,100.00
2023-04-02T03:29:03.390Z,100.00
2023-04-02T03:31:38.630Z,100.00
2023-04-02T03:34:20.244Z,100.00
2023-04-02T03:36:58.029Z,100.00
2023-04-02T03:39:45.674Z,100.00
2023-04-02T03:42:25.133Z,100.00
2023-04-02T03:44:58.722Z,100.00
2023-04-02T03:47:38.761Z,100.00
2023-04-02T03:50:11.311Z,100.00
2023-04-02T03:52:38.554Z,100.00
2023-04-02T03:55:18.245Z,100.00
2023-04-02T03:57:54.055Z,100.00
2023-04-02T04:00:26.472Z,100.00
2023-04-02T04:02:57.585Z,100.00
2023-04-02T04:05:37.953Z,100.00
2023-04-02T04:08:14.397Z,100.00
2023-04-02T04:10:42.280Z,100.00
2023-04-02T04:13:16.063Z,100.00
2023-04-02T04:15:49.286Z,100.00
2023-04-02T04:18:41.319Z,100.00
2023-04-02T04:21:31.343Z,100.00
2023-04-02T04:24:03.849Z,100.00
2023-04-02T04:26:53.598Z,100.00
2023-04-02T04:29:38.284Z,100.00
2023-04-02T04:32:16.845Z,100.00
2023-04-02T04:34:53.786Z,100.00
2023-04-02T04:37:25.360Z,100.00
2023-04-02T04:39:58.261Z,100.00
2023-04-02T04:42:31.180Z,100.00
2023-04-02T04:45:41.208Z,100.00
2023-04-02T04:48:19.047Z,100.00
2023-04-02T04:51:20.427Z,100.00
2023-04-02T04:53:49.558Z,100.00
2023-04-02T04:56:23.566Z,100.00
2023-04-02T04:58:59.388Z,100.00
2023-04-02T05:01:37.972Z,100.00
2023-04-02T05:04:11.156Z,100.00
2023-04-02T05:06:41.289Z,100.00
2023-04-02T05:09:36.418Z,100.00
2023-04-02T05:12:08.477Z,100.00
2023-04-02T05:14:45.263Z,100.00
2023-04-02T05:17:21.068Z,100.00
2023-04-02T05:19:56.811Z,100.00
2023-04-02T05:22:40.938Z,100.00
2023-04-02T05:25:11.275Z,100.00
2023-04-02T05:27:56.272Z,100.00
2023-04-02T05:30:22.875Z,99.58
2023-04-02T05:33:00.626Z,99.19
2023-04-02T05:35:41.908Z,100.00
2023-04-02T05:38:08.710Z,100.00
2023-04-02T05:40:41.787Z,99.47
2023-04-02T05:43:16.675Z,98.00
2023-04-02T05:45:46.058Z,100.00
2023-04-02T05:48:21.485Z,99.61
2023-04-02T05:50:51.965Z,100.00
2023-04-02T05:53:27.798Z,100.00
2023-04-02T05:56:11.319Z,98.85
2023-04-02T05:58:51.556Z,98.29
2023-04-02T06:01:29.636Z,97.36
2023-04-02T06:04:02.751Z,100.00
2023-04-02T06:06:39.130Z,96.93
2023-04-02T06:09:11.753Z,100.00
2023-04-02T06:11:42.968Z,96.04
2023-04-02T06:14:12.381Z,95.28
2023-04-02T06:16:39.319Z,98.65
2023-04-02T06:19:10.410Z,100.00
2023-04-02T06:21:44.315Z,100.00
2023-04-02T06:24:13.805Z,96.88
2023-04-02T06:26:44.584Z,99.87
2023-04-02T06:29:13.950Z,97.41
2023-04-02T06:32:11.553Z,99.81
2023-04-02T06:34:40.103Z,99.67
2023-04-02T06:37:33.969Z,94.62
2023-04-02T06:40:01.410Z,94.91
2023-04-02T06:42:34.716Z,90.59
2023-04-02T06:45:04.134Z,94.10
2023-04-02T06:47:44.597Z,96.02
2023-04-02T06:50:19.238Z,92.21
2023-04-02T06:52:49.142Z,87.52
2023-04-02T06:55:37.647Z,93.31
2023-04-02T06:58:04.555Z,92.16
2023-04-02T07:00:42.738Z,88.71
2023-04-02T07:03:31.285Z,92.18
2023-04-02T07:05:59.191Z,89.00
2023-04-02T07:08:26.104Z,87.55
2023-04-02T07:10:53.021Z,84.22
2023-04-02T07:13:22.224Z,82.95
2023-04-02T07:15:51.535Z,87.33
2023-04-02T07:18:26.684Z,82.65
2023-04-02T07:20:53.458Z,82.84
2023-04-02T07:23:21.251Z,77.47
2023-04-02T07:25:53.362Z,81.53
2023-04-02T07:28:22.524Z,81.03
2023-04-02T07:30:50.111Z,75.16
2023-04-02T07:33:22.748Z,78.51
2023-04-02T07:35:50.850Z,82.84
2023-04-02T07:38:17.635Z,79.99
2023-04-02T07:40:44.532Z,77.92
2023-04-02T07:43:11.611Z,80.88
2023-04-02T07:45:38.446Z,77.12
2023-04-02T07:48:10.898Z,80.71
2023-04-02T07:50:38.117Z,75.47
2023-04-02T07:53:05.002Z,79.14
2023-04-02T07:55:32.039Z,78.09
2023-04-02T07:57:59.641Z,80.94
2023-04-02T08:00:29.061Z,79.00
2023-04-02T08:02:56.257Z,75.29
2023-04-02T08:05:23.145Z,75.90
2023-04-02T08:07:55.165Z,73.80
2023-04-02T08:10:22.305Z,73.94
2023-04-02T08:12:49.800Z,74.88
2023-04-02T08:15:16.955Z,72.96
2023-04-02T08:17:43.821Z,72.90
2023-04-02T08:20:16.966Z,70.18
2023-04-02T08:22:45.335Z,75.90
2023-04-02T08:25:12.314Z,76.40
2023-04-02T08:27:39.370Z,74.91
2023-04-02T08:30:07.787Z,70.72
2023-04-02T08:32:34.863Z,71.63
2023-04-02T08:35:01.573Z,72.68
2023-04-02T08:37:28.202Z,68.55
2023-04-02T08:39:54.864Z,72.96
2023-04-02T08:42:43.191Z,71.96
2023-04-02T08:45:25.488Z,69.77
2023-04-02T08:47:55.379Z,71.87
2023-04-02T08:50:32.198Z,67.40
2023-04-02T08:52:59.841Z,69.75
2023-04-02T08:55:49.722Z,68.44
2023-04-02T08:58:50.041Z,74.18
2023-04-02T09:01:34.967Z,68.76
2023-04-02T09:04:06.290Z,65.41
2023-04-02T09:06:33.548Z,62.64
2023-04-02T09:09:00.328Z,67.03
2023-04-02T09:11:41.878Z,61.91
2023-04-02T09:14:17.646Z,63.09
2023-04-02T09:16:47.953Z,60.25
2023-04-02T09:19:35.067Z,63.33
2023-04-02T09:22:08.974Z,57.50
2023-04-02T09:24:37.660Z,57.76
2023-04-02T09:27:04.671Z,59.20
2023-04-02T09:29:45.453Z,64.08
2023-04-02T09:32:30.919Z,59.76
2023-04-02T09:35:24.824Z,61.01
2023-04-02T09:38:14.172Z,53.75
2023-04-02T09:41:07.018Z,60.14
2023-04-02T09:43:35.968Z,59.43
2023-04-02T09:46:13.977Z,59.75
2023-04-02T09:48:44.044Z,55.86
2023-04-02T09:51:17.805Z,55.68
2023-04-02T09:53:47.861Z,56.42
2023-04-02T09:56:25.633Z,53.29
2023-04-02T10:01:44.695Z,55.30
2023-04-02T10:04:47.995Z,54.69
2023-04-02T10:07:38.677Z,50.99
2023-04-02T10:10:30.677Z,53.18
2023-04-02T10:13:06.315Z,51.91
2023-04-02T10:16:04.321Z,53.60
2023-04-02T10:18:43.508Z,53.02
2023-04-02T10:21:14.109Z,58.76
2023-04-02T10:23:41.060Z,52.86
2023-04-02T10:26:24.790Z,55.38
2023-04-02T10:29:00.464Z,53.50
2023-04-02T10:31:45.849Z,54.76
2023-04-02T10:34:27.906Z,56.54
2023-04-02T10:36:57.827Z,59.74
2023-04-02T10:39:44.916Z,56.54
2023-04-02T10:42:21.451Z,59.27
2023-04-02T10:45:02.078Z,55.68
2023-04-02T10:47:33.588Z,56.46
2023-04-02T10:50:08.884Z,57.83
2023-04-02T10:52:38.759Z,54.86
2023-04-02T10:55:26.190Z,55.38
2023-04-02T10:57:54.463Z,55.36
2023-04-02T11:00:26.053Z,55.96
2023-04-02T11:03:00.519Z,56.85
2023-04-02T11:05:53.769Z,58.54
2023-04-02T11:08:26.926Z,58.07
2023-04-02T11:10:58.704Z,56.73
2023-04-02T11:13:37.496Z,54.23
2023-04-02T11:16:04.268Z,57.08
2023-04-02T11:18:35.905Z,56.21
2023-04-02T11:21:44.905Z,52.77
2023-04-02T11:24:31.550Z,55.71
2023-04-02T11:27:07.255Z,50.82
2023-04-02T11:29:36.709Z,50.58
2023-04-02T11:32:21.717Z,53.46
2023-04-02T11:34:56.387Z,57.10
2023-04-02T11:37:35.062Z,54.48
2023-04-02T11:40:14.807Z,53.97
2023-04-02T11:42:52.748Z,56.71
2023-04-02T11:45:28.625Z,57.90
2023-04-02T11:48:01.491Z,55.06
2023-04-02T11:50:29.990Z,55.23
2023-04-02T11:53:02.718Z,58.22
2023-04-02T11:55:34.294Z,54.36
2023-04-02T11:58:39.028Z,53.14
2023-04-02T12:01:05.594Z,54.94
2023-04-02T12:03:54.251Z,52.27
2023-04-02T12:06:48.856Z,57.24
2023-04-02T12:09:27.957Z,54.93
2023-04-02T12:11:59.890Z,56.82
2023-04-02T12:14:47.493Z,58.09
2023-04-02T12:17:19.425Z,55.25
2023-04-02T12:19:48.724Z,57.50
2023-04-02T12:22:20.941Z,53.86
2023-04-02T12:24:48.318Z,56.71
2023-04-02T12:27:24.454Z,54.95
2023-04-02T12:29:51.736Z,56.30
2023-04-02T12:32:31.138Z,55.04
2023-04-02T12:34:58.206Z,56.68
2023-04-02T12:37:27.197Z,55.88
2023-04-02T12:40:06.987Z,53.58
2023-04-02T12:42:37.719Z,53.89
2023-04-02T12:45:07.004Z,52.42
2023-04-02T12:47:33.856Z,54.62
2023-04-02T12:50:01.453Z,53.40
2023-04-02T12:52:29.187Z,55.13
2023-04-02T12:55:01.708Z,56.44
2023-04-02T12:57:31.656Z,57.46
2023-04-02T13:00:25.278Z,58.22
2023-04-02T13:03:08.787Z,56.71
2023-04-02T13:05:42.795Z,57.78
2023-04-02T13:08:30.830Z,59.99
2023-04-02T13:10:59.844Z,59.94
2023-04-02T13:13:30.214Z,56.16
2023-04-02T13:16:02.776Z,58.29
2023-04-02T13:18:31.180Z,57.59
2023-04-02T13:21:16.660Z,57.48
2023-04-02T13:23:44.264Z,54.89
2023-04-02T13:26:27.377Z,58.56
2023-04-02T13:29:09.417Z,61.04
2023-04-02T13:31:36.233Z,59.07
2023-04-02T13:34:03.258Z,57.77
2023-04-02T13:36:30.025Z,60.78
2023-04-02T13:38:57.142Z,62.95
2023-04-02T13:41:27.799Z,61.15
2023-04-02T13:43:55.147Z,61.21
2023-04-02T13:46:24.970Z,60.76
2023-04-02T13:48:53.320Z,62.19
2023-04-02T13:51:23.051Z,60.78
2023-04-02T13:53:55.630Z,59.77
2023-04-02T13:56:23.425Z,60.78
2023-04-02T13:58:51.442Z,59.13
2023-04-02T14:01:20.812Z,61.64
2023-04-02T14:03:47.675Z,60.57
2023-04-02T14:06:37.910Z,59.70
2023-04-02T14:09:35.780Z,62.24
2023-04-02T14:12:10.766Z,59.36
2023-04-02T14:15:09.924Z,62.33
2023-04-02T14:18:02.388Z,58.24
2023-04-02T14:20:36.663Z,61.41
2023-04-02T14:23:03.335Z,61.50
2023-04-02T14:25:54.977Z,64.53
2023-04-02T14:28:28.153Z,64.02
2023-04-02T14:31:13.307Z,59.90
2023-04-02T14:33:51.668Z,61.17
2023-04-02T14:36:27.003Z,58.82
2023-04-02T14:39:06.399Z,62.71
2023-04-02T14:41:45.613Z,60.64
2023-04-02T14:44:13.022Z,61.51
2023-04-02T14:46:39.956Z,60.19
2023-04-02T14:49:29.741Z,61.73
2023-04-02T14:51:56.599Z,60.87
2023-04-02T14:54:52.586Z,59.17
2023-04-02T14:57:33.360Z,56.95
2023-04-02T15:00:13.503Z,57.33
2023-04-02T15:03:04.162Z,61.83
2023-04-02T15:05:41.630Z,57.81
2023-04-02T15:08:30.556Z,55.71
2023-04-02T15:11:05.693Z,59.66
2023-04-02T15:13:45.583Z,57.95
2023-04-02T15:16:23.668Z,59.57
2023-04-02T15:18:51.681Z,59.33
2023-04-02T15:21:43.367Z,58.15
2023-04-02T15:24:18.791Z,56.62
2023-04-02T15:27:22.204Z,57.41
2023-04-02T15:29:52.146Z,58.44
2023-04-02T15:32:32.335Z,59.13
2023-04-02T15:35:27.038Z,60.37
2023-04-02T15:38:02.386Z,58.19
2023-04-02T15:40:45.098Z,58.62
2023-04-02T15:43:22.972Z,59.05
2023-04-02T15:46:11.731Z,57.62
2023-04-02T15:49:10.898Z,58.11
2023-04-02T15:51:56.535Z,57.99
2023-04-02T15:54:42.241Z,58.76
2023-04-02T15:57:34.325Z,58.09
2023-04-02T16:00:20.385Z,57.79
2023-04-02T16:03:12.275Z,58.60
2023-04-02T16:06:01.373Z,61.92
2023-04-02T16:08:59.304Z,61.32
2023-04-02T16:11:27.438Z,61.45
2023-04-02T16:14:05.138Z,64.48
2023-04-02T16:16:34.775Z,62.16
2023-04-02T16:19:17.350Z,62.91
2023-04-02T16:21:52.784Z,64.08
2023-04-02T16:24:19.815Z,64.97
2023-04-02T16:27:24.150Z,65.09
2023-04-02T16:30:22.524Z,66.27
2023-04-02T16:33:10.475Z,65.87
2023-04-02T16:35:56.922Z,68.13
2023-04-02T16:38:57.678Z,71.15
2023-04-02T16:41:42.935Z,69.94
2023-04-02T16:44:34.801Z,69.62
2023-04-02T16:47:04.374Z,70.82
2023-04-02T16:49:46.186Z,70.53
2023-04-02T16:52:28.004Z,74.14
2023-04-02T16:55:14.459Z,70.53
2023-04-02T16:57:56.895Z,71.51
2023-04-02T17:00:46.259Z,69.38
2023-04-02T17:03:34.869Z,71.41
2023-04-02T17:06:06.142Z,71.53
2023-04-02T17:08:42.520Z,72.85
2023-04-02T17:11:15.102Z,72.05
2023-04-02T17:13:43.704Z,72.30
2023-04-02T17:16:20.157Z,70.62
2023-04-02T17:18:48.896Z,73.51
2023-04-02T17:21:19.813Z,74.62
2023-04-02T17:23:55.831Z,75.03
2023-04-02T17:26:27.229Z,74.67
2023-04-02T17:28:57.464Z,74.65
2023-04-02T17:31:26.339Z,73.76
2023-04-02T17:33:53.069Z,74.86
2023-04-02T17:36:35.155Z,76.14
2023-04-02T17:39:10.024Z,75.93
2023-04-02T17:42:10.426Z,77.17
2023-04-02T17:44:41.817Z,78.04
2023-04-02T17:47:11.449Z,76.46
2023-04-02T17:50:18.427Z,77.71
2023-04-02T17:52:51.664Z,79.41
2023-04-02T17:55:52.929Z,78.73
2023-04-02T17:58:48.673Z,80.07
2023-04-02T18:01:24.883Z,79.69
2023-04-02T18:03:58.421Z,80.14
2023-04-02T18:06:32.275Z,80.29
2023-04-02T18:09:04.274Z,81.05
2023-04-02T18:11:40.651Z,80.83
2023-04-02T18:14:29.702Z,82.04
2023-04-02T18:17:19.651Z,80.75
2023-04-02T18:19:54.252Z,81.37
2023-04-02T18:22:47.640Z,81.53
2023-04-02T18:25:27.235Z,81.51
2023-04-02T18:28:11.669Z,81.25
2023-04-02T18:31:03.488Z,83.47
2023-04-02T18:33:33.079Z,83.83
2023-04-02T18:36:05.250Z,83.27
2023-04-02T18:38:49.708Z,84.57
2023-04-02T18:41:31.429Z,84.40
2023-04-02T18:44:07.750Z,86.20
2023-04-02T18:46:43.843Z,85.86
2023-04-02T18:49:37.028Z,85.69
2023-04-02T18:52:11.131Z,86.40
2023-04-02T18:54:50.983Z,87.26
2023-04-02T18:57:22.503Z,87.48
2023-04-02T19:00:38.658Z,87.61
2023-04-02T19:03:31.603Z,87.69
2023-04-02T19:06:04.831Z,87.94
2023-04-02T19:08:50.437Z,88.08
2023-04-02T19:11:31.910Z,88.86
2023-04-02T19:13:59.832Z,90.22
2023-04-02T19:16:45.141Z,89.52
2023-04-02T19:19:41.053Z,91.53
2023-04-02T19:22:18.444Z,91.46
2023-04-02T19:25:00.401Z,91.23
2023-04-02T19:27:27.494Z,93.27
2023-04-02T19:30:00.996Z,93.38
2023-04-02T19:32:54.435Z,93.40
2023-04-02T19:35:31.850Z,91.42
2023-04-02T19:38:21.742Z,92.01
2023-04-02T19:41:00.130Z,92.73
2023-04-02T19:43:27.983Z,92.70
2023-04-02T19:45:55.525Z,92.09
2023-04-02T19:48:26.641Z,94.16
2023-04-02T19:50:53.788Z,93.69
2023-04-02T19:53:20.592Z,94.50
2023-04-02T19:55:47.347Z,95.37
2023-04-02T19:58:31.284Z,96.04
2023-04-02T20:00:58.173Z,96.39
2023-04-02T20:03:24.870Z,96.89
2023-04-02T20:05:51.560Z,95.23
2023-04-02T20:08:18.410Z,96.02
2023-04-02T20:10:45.272Z,96.09
2023-04-02T20:13:11.971Z,95.59
2023-04-02T20:15:40.083Z,96.40
2023-04-02T20:18:06.949Z,96.04
2023-04-02T20:20:33.918Z,95.39
2023-04-02T20:23:00.859Z,95.06
2023-04-02T20:25:27.451Z,96.89
2023-04-02T20:27:54.108Z,96.84
2023-04-02T20:30:20.702Z,96.58
2023-04-02T20:32:47.551Z,96.50
2023-04-02T20:35:14.316Z,96.66
2023-04-02T20:37:42.000Z,98.84
2023-04-02T20:40:10.212Z,97.18
2023-04-02T20:42:37.414Z,98.94
2023-04-02T20:45:06.236Z,100.00
2023-04-02T20:47:34.740Z,98.34
2023-04-02T20:50:04.209Z,99.04
2023-04-02T20:52:33.489Z,99.89
2023-04-02T20:55:00.220Z,100.00
2023-04-02T20:57:34.226Z,99.14
2023-04-02T21:00:07.195Z,100.00
2023-04-02T21:02:37.876Z,100.00
2023-04-02T21:05:06.039Z,100.00
2023-04-02T21:07:36.877Z,100.00
2023-04-02T21:10:05.959Z,100.00
2023-04-02T21:12:32.827Z,100.00
2023-04-02T21:15:02.288Z,100.00
2023-04-02T21:17:29.700Z,100.00
2023-04-02T21:19:56.342Z,100.00
2023-04-02T21:22:23.071Z,100.00
2023-04-02T21:24:49.734Z,100.00
2023-04-02T21:27:17.371Z,100.00
2023-04-02T21:29:44.242Z,100.00
2023-04-02T21:32:20.783Z,100.00
2023-04-02T21:34:48.220Z,100.00
2023-04-02T21:37:14.950Z,100.00
2023-04-02T21:39:41.702Z,100.00
2023-04-02T21:42:10.659Z,100.00
2023-04-02T21:44:37.294Z,100.00
2023-04-02T21:47:04.145Z,100.00
2023-04-02T21:49:31.001Z,100.00
2023-04-02T21:51:57.647Z,100.00
2023-04-02T21:54:24.287Z,100.00
2023-04-02T21:56:51.460Z,100.00
2023-04-02T21:59:19.158Z,100.00
2023-04-02T22:01:49.228Z,100.00
2023-04-02T22:04:21.489Z,100.00
2023-04-02T22:06:48.756Z,100.00
2023-04-02T22:09:18.460Z,100.00
2023-04-02T22:11:47.489Z,100.00
2023-04-02T22:14:14.679Z,100.00
2023-04-02T22:16:41.896Z,100.00
2023-04-02T22:19:11.716Z,100.00
2023-04-02T22:21:38.844Z,100.00
2023-04-02T22:24:08.997Z,100.00
2023-04-02T22:26:36.695Z,100.00
2023-04-02T22:29:04.599Z,100.00
2023-04-02T22:31:33.628Z,100.00
2023-04-02T22:34:01.110Z,100.00
2023-04-02T22:36:28.425Z,100.00
2023-04-02T22:38:56.651Z,100.00
2023-04-02T22:41:28.991Z,100.00
2023-04-02T22:43:56.685Z,100.00
2023-04-02T22:46:24.401Z,100.00
2023-04-02T22:48:51.327Z,100.00
2023-04-02T22:51:20.048Z,100.00
2023-04-02T22:53:47.394Z,100.00
2023-04-02T22:56:17.058Z,100.00
2023-04-02T22:58:44.501Z,100.00
2023-04-02T23:01:23.851Z,100.00
2023-04-02T23:03:53.067Z,100.00
2023-04-02T23:06:20.326Z,100.00
2023-04-02T23:08:47.281Z,100.00
2023-04-02T23:11:17.283Z,100.00
2023-04-02T23:13:45.455Z,100.00
2023-04-02T23:16:13.395Z,100.00
2023-04-02T23:18:41.718Z,100.00
2023-04-02T23:21:08.707Z,100.00
2023-04-02T23:23:35.483Z,100.00
2023-04-02T23:26:16.386Z,100.00
2023-04-02T23:28:43.453Z,100.00
2023-04-02T23:31:19.286Z,100.00
2023-04-02T23:33:48.462Z,100.00
2023-04-02T23:36:25.440Z,100.00
2023-04-02T23:38:56.994Z,100.00
2023-04-02T23:41:28.682Z,100.00
2023-04-02T23:43:56.196Z,100.00
2023-04-02T23:46:23.673Z,100.00
2023-04-02T23:48:51.389Z,100.00
2023-04-02T23:51:18.685Z,100.00
2023-04-02T23:53:45.309Z,100.00
2023-04-02T23:56:12.318Z,100.00
2023-04-02T23:58:38.959Z,100.00
